sensor_id;sensor_type;location;lat;lon;timestamp;P1;durP1;ratioP1;P2;durP2;ratioP2
75858;SDS011;64504;51.308;8.620;2023-05-14T00:01:40;6.90;;;5.45;;
75858;SDS011;64504;51.308;8.620;2023-05-14T00:04:06;7.07;;;6.00;;
75858;SDS011;64504;51.308;8.620;2023-05-14T00:06:31;14.77;;;6.13;;
75858;SDS011;64504;51.308;8.620;2023-05-14T00:08:57;6.63;;;4.90;;
75858;SDS011;64504;51.308;8.620;2023-05-14T00:11:22;6.50;;;5.88;;
75858;SDS011;64504;51.308;8.620;2023-05-14T00:13:48;5.38;;;4.88;;
75858;SDS011;64504;51.308;8.620;2023-05-14T00:16:14;6.60;;;5.10;;
75858;SDS011;64504;51.308;8.620;2023-05-14T00:18:40;10.18;;;5.78;;
75858;SDS011;64504;51.308;8.620;2023-05-14T00:21:06;10.20;;;5.07;;
75858;SDS011;64504;51.308;8.620;2023-05-14T00:23:31;7.88;;;6.95;;
75858;SDS011;64504;51.308;8.620;2023-05-14T00:25:57;6.57;;;5.97;;
75858;SDS011;64504;51.308;8.620;2023-05-14T00:28:22;5.90;;;5.40;;
75858;SDS011;64504;51.308;8.620;2023-05-14T00:30:48;6.95;;;5.43;;
75858;SDS011;64504;51.308;8.620;2023-05-14T00:33:13;7.78;;;6.97;;
75858;SDS011;64504;51.308;8.620;2023-05-14T00:35:39;8.18;;;7.50;;
75858;SDS011;64504;51.308;8.620;2023-05-14T00:38:04;7.38;;;6.63;;
75858;SDS011;64504;51.308;8.620;2023-05-14T00:40:30;13.13;;;7.03;;
75858;SDS011;64504;51.308;8.620;2023-05-14T00:42:55;7.70;;;6.93;;
75858;SDS011;64504;51.308;8.620;2023-05-14T00:45:21;7.60;;;6.90;;
75858;SDS011;64504;51.308;8.620;2023-05-14T00:47:50;6.68;;;6.05;;
75858;SDS011;64504;51.308;8.620;2023-05-14T00:50:16;7.55;;;6.07;;
75858;SDS011;64504;51.308;8.620;2023-05-14T00:52:42;7.68;;;6.88;;
75858;SDS011;64504;51.308;8.620;2023-05-14T00:55:08;6.60;;;6.05;;
75858;SDS011;64504;51.308;8.620;2023-05-14T00:57:34;5.60;;;5.20;;
75858;SDS011;64504;51.308;8.620;2023-05-14T01:00:00;6.95;;;5.50;;
75858;SDS011;64504;51.308;8.620;2023-05-14T01:02:27;5.47;;;4.95;;
75858;SDS011;64504;51.308;8.620;2023-05-14T01:04:52;7.32;;;6.32;;
75858;SDS011;64504;51.308;8.620;2023-05-14T01:10:10;6.85;;;5.75;;
75858;SDS011;64504;51.308;8.620;2023-05-14T01:15:12;7.03;;;6.43;;
75858;SDS011;64504;51.308;8.620;2023-05-14T01:17:45;7.10;;;6.50;;
75858;SDS011;64504;51.308;8.620;2023-05-14T01:20:13;7.28;;;6.55;;
75858;SDS011;64504;51.308;8.620;2023-05-14T01:22:39;7.90;;;6.60;;
75858;SDS011;64504;51.308;8.620;2023-05-14T01:25:04;7.10;;;6.40;;
75858;SDS011;64504;51.308;8.620;2023-05-14T01:28:18;11.18;;;7.03;;
75858;SDS011;64504;51.308;8.620;2023-05-14T01:33:17;7.43;;;6.68;;
75858;SDS011;64504;51.308;8.620;2023-05-14T01:35:44;7.72;;;6.93;;
75858;SDS011;64504;51.308;8.620;2023-05-14T01:38:10;7.50;;;6.53;;
75858;SDS011;64504;51.308;8.620;2023-05-14T01:40:36;9.90;;;7.10;;
75858;SDS011;64504;51.308;8.620;2023-05-14T01:43:02;7.82;;;7.03;;
75858;SDS011;64504;51.308;8.620;2023-05-14T01:45:29;7.63;;;6.75;;
75858;SDS011;64504;51.308;8.620;2023-05-14T01:47:55;7.30;;;6.13;;
75858;SDS011;64504;51.308;8.620;2023-05-14T01:50:20;12.20;;;6.45;;
75858;SDS011;64504;51.308;8.620;2023-05-14T01:52:47;8.35;;;7.40;;
75858;SDS011;64504;51.308;8.620;2023-05-14T01:55:13;9.27;;;7.15;;
75858;SDS011;64504;51.308;8.620;2023-05-14T01:57:39;9.45;;;7.10;;
75858;SDS011;64504;51.308;8.620;2023-05-14T02:00:05;12.48;;;6.55;;
75858;SDS011;64504;51.308;8.620;2023-05-14T02:02:31;9.55;;;7.43;;
75858;SDS011;64504;51.308;8.620;2023-05-14T02:04:57;8.48;;;7.18;;
75858;SDS011;64504;51.308;8.620;2023-05-14T02:07:22;12.73;;;6.45;;
75858;SDS011;64504;51.308;8.620;2023-05-14T02:09:48;6.03;;;5.53;;
75858;SDS011;64504;51.308;8.620;2023-05-14T02:12:13;7.10;;;6.40;;
75858;SDS011;64504;51.308;8.620;2023-05-14T02:14:40;6.38;;;5.88;;
75858;SDS011;64504;51.308;8.620;2023-05-14T02:17:06;8.25;;;7.43;;
75858;SDS011;64504;51.308;8.620;2023-05-14T02:19:32;17.98;;;5.93;;
75858;SDS011;64504;51.308;8.620;2023-05-14T02:22:00;8.38;;;6.22;;
75858;SDS011;64504;51.308;8.620;2023-05-14T02:24:25;7.22;;;6.18;;
75858;SDS011;64504;51.308;8.620;2023-05-14T02:26:51;8.15;;;5.93;;
75858;SDS011;64504;51.308;8.620;2023-05-14T02:29:17;6.30;;;5.68;;
75858;SDS011;64504;51.308;8.620;2023-05-14T02:31:42;6.78;;;6.10;;
75858;SDS011;64504;51.308;8.620;2023-05-14T02:34:08;6.50;;;6.00;;
75858;SDS011;64504;51.308;8.620;2023-05-14T02:36:33;7.55;;;6.75;;
75858;SDS011;64504;51.308;8.620;2023-05-14T02:38:59;6.65;;;6.07;;
75858;SDS011;64504;51.308;8.620;2023-05-14T02:41:25;9.27;;;7.10;;
75858;SDS011;64504;51.308;8.620;2023-05-14T02:43:51;7.28;;;6.47;;
75858;SDS011;64504;51.308;8.620;2023-05-14T02:46:17;7.85;;;7.05;;
75858;SDS011;64504;51.308;8.620;2023-05-14T02:48:43;5.85;;;5.35;;
75858;SDS011;64504;51.308;8.620;2023-05-14T02:51:09;19.90;;;7.78;;
75858;SDS011;64504;51.308;8.620;2023-05-14T02:53:35;7.45;;;6.15;;
75858;SDS011;64504;51.308;8.620;2023-05-14T02:56:00;7.55;;;6.68;;
75858;SDS011;64504;51.308;8.620;2023-05-14T02:58:26;8.68;;;5.68;;
75858;SDS011;64504;51.308;8.620;2023-05-14T03:00:51;11.40;;;7.43;;
75858;SDS011;64504;51.308;8.620;2023-05-14T03:03:17;6.93;;;6.32;;
75858;SDS011;64504;51.308;8.620;2023-05-14T03:05:43;8.68;;;7.80;;
75858;SDS011;64504;51.308;8.620;2023-05-14T03:08:08;7.32;;;6.72;;
75858;SDS011;64504;51.308;8.620;2023-05-14T03:10:34;8.10;;;6.85;;
75858;SDS011;64504;51.308;8.620;2023-05-14T03:13:00;7.20;;;6.60;;
75858;SDS011;64504;51.308;8.620;2023-05-14T03:15:25;6.72;;;5.90;;
75858;SDS011;64504;51.308;8.620;2023-05-14T03:17:50;6.22;;;5.78;;
75858;SDS011;64504;51.308;8.620;2023-05-14T03:20:16;13.93;;;6.28;;
75858;SDS011;64504;51.308;8.620;2023-05-14T03:22:41;8.23;;;6.90;;
75858;SDS011;64504;51.308;8.620;2023-05-14T03:25:07;6.72;;;6.13;;
75858;SDS011;64504;51.308;8.620;2023-05-14T03:27:33;9.07;;;6.28;;
75858;SDS011;64504;51.308;8.620;2023-05-14T03:29:58;6.95;;;6.13;;
75858;SDS011;64504;51.308;8.620;2023-05-14T03:32:25;6.10;;;5.50;;
75858;SDS011;64504;51.308;8.620;2023-05-14T03:34:50;6.20;;;5.15;;
75858;SDS011;64504;51.308;8.620;2023-05-14T03:37:16;8.43;;;6.70;;
75858;SDS011;64504;51.308;8.620;2023-05-14T03:39:42;6.22;;;5.70;;
75858;SDS011;64504;51.308;8.620;2023-05-14T03:42:07;6.97;;;5.10;;
75858;SDS011;64504;51.308;8.620;2023-05-14T03:44:33;9.30;;;6.18;;
75858;SDS011;64504;51.308;8.620;2023-05-14T03:46:59;12.88;;;7.05;;
75858;SDS011;64504;51.308;8.620;2023-05-14T03:49:25;9.23;;;6.20;;
75858;SDS011;64504;51.308;8.620;2023-05-14T03:51:50;7.78;;;6.63;;
75858;SDS011;64504;51.308;8.620;2023-05-14T03:54:16;7.85;;;7.13;;
75858;SDS011;64504;51.308;8.620;2023-05-14T03:56:41;7.13;;;6.43;;
75858;SDS011;64504;51.308;8.620;2023-05-14T03:59:07;6.55;;;5.93;;
75858;SDS011;64504;51.308;8.620;2023-05-14T04:01:32;10.85;;;7.78;;
75858;SDS011;64504;51.308;8.620;2023-05-14T04:03:58;7.05;;;6.05;;
75858;SDS011;64504;51.308;8.620;2023-05-14T04:06:23;7.43;;;6.78;;
75858;SDS011;64504;51.308;8.620;2023-05-14T04:08:52;6.22;;;5.63;;
75858;SDS011;64504;51.308;8.620;2023-05-14T04:11:17;10.10;;;6.53;;
75858;SDS011;64504;51.308;8.620;2023-05-14T04:13:43;7.22;;;6.63;;
75858;SDS011;64504;51.308;8.620;2023-05-14T04:16:08;14.20;;;7.45;;
75858;SDS011;64504;51.308;8.620;2023-05-14T04:18:34;6.70;;;6.10;;
75858;SDS011;64504;51.308;8.620;2023-05-14T04:21:00;6.82;;;6.18;;
75858;SDS011;64504;51.308;8.620;2023-05-14T04:23:26;7.10;;;6.15;;
75858;SDS011;64504;51.308;8.620;2023-05-14T04:25:52;7.88;;;6.45;;
75858;SDS011;64504;51.308;8.620;2023-05-14T04:28:18;7.15;;;6.53;;
75858;SDS011;64504;51.308;8.620;2023-05-14T04:30:43;6.82;;;6.22;;
75858;SDS011;64504;51.308;8.620;2023-05-14T04:33:09;6.95;;;6.32;;
75858;SDS011;64504;51.308;8.620;2023-05-14T04:35:37;7.03;;;6.43;;
75858;SDS011;64504;51.308;8.620;2023-05-14T04:38:03;6.15;;;5.55;;
75858;SDS011;64504;51.308;8.620;2023-05-14T04:40:28;6.50;;;5.90;;
75858;SDS011;64504;51.308;8.620;2023-05-14T04:42:55;5.05;;;4.45;;
75858;SDS011;64504;51.308;8.620;2023-05-14T04:45:21;5.63;;;4.78;;
75858;SDS011;64504;51.308;8.620;2023-05-14T04:47:46;8.35;;;5.97;;
75858;SDS011;64504;51.308;8.620;2023-05-14T04:50:11;6.78;;;6.15;;
75858;SDS011;64504;51.308;8.620;2023-05-14T04:52:37;7.72;;;6.95;;
75858;SDS011;64504;51.308;8.620;2023-05-14T04:55:03;7.10;;;6.40;;
75858;SDS011;64504;51.308;8.620;2023-05-14T04:57:29;7.05;;;6.13;;
75858;SDS011;64504;51.308;8.620;2023-05-14T04:59:54;6.75;;;6.22;;
75858;SDS011;64504;51.308;8.620;2023-05-14T05:02:20;6.80;;;6.15;;
75858;SDS011;64504;51.308;8.620;2023-05-14T05:04:45;7.43;;;5.22;;
75858;SDS011;64504;51.308;8.620;2023-05-14T05:07:11;6.90;;;5.97;;
75858;SDS011;64504;51.308;8.620;2023-05-14T05:09:38;6.15;;;5.57;;
75858;SDS011;64504;51.308;8.620;2023-05-14T05:12:04;5.47;;;4.95;;
75858;SDS011;64504;51.308;8.620;2023-05-14T05:14:30;5.90;;;5.35;;
75858;SDS011;64504;51.308;8.620;2023-05-14T05:16:55;5.72;;;5.20;;
75858;SDS011;64504;51.308;8.620;2023-05-14T05:19:21;5.75;;;4.85;;
75858;SDS011;64504;51.308;8.620;2023-05-14T05:21:46;5.63;;;5.13;;
75858;SDS011;64504;51.308;8.620;2023-05-14T05:24:12;5.80;;;4.70;;
75858;SDS011;64504;51.308;8.620;2023-05-14T05:26:37;6.07;;;5.47;;
75858;SDS011;64504;51.308;8.620;2023-05-14T05:29:03;5.90;;;4.95;;
75858;SDS011;64504;51.308;8.620;2023-05-14T05:31:29;5.13;;;4.60;;
75858;SDS011;64504;51.308;8.620;2023-05-14T05:33:55;9.32;;;5.82;;
75858;SDS011;64504;51.308;8.620;2023-05-14T05:36:22;9.52;;;4.97;;
75858;SDS011;64504;51.308;8.620;2023-05-14T05:38:48;4.97;;;4.55;;
75858;SDS011;64504;51.308;8.620;2023-05-14T05:41:13;7.60;;;4.82;;
75858;SDS011;64504;51.308;8.620;2023-05-14T05:43:39;8.98;;;5.25;;
75858;SDS011;64504;51.308;8.620;2023-05-14T05:46:05;7.90;;;5.28;;
75858;SDS011;64504;51.308;8.620;2023-05-14T05:48:32;7.35;;;4.75;;
75858;SDS011;64504;51.308;8.620;2023-05-14T05:50:58;9.35;;;5.70;;
75858;SDS011;64504;51.308;8.620;2023-05-14T05:53:23;5.18;;;4.68;;
75858;SDS011;64504;51.308;8.620;2023-05-14T05:55:49;6.57;;;5.90;;
75858;SDS011;64504;51.308;8.620;2023-05-14T05:58:17;5.45;;;4.95;;
75858;SDS011;64504;51.308;8.620;2023-05-14T06:00:46;5.47;;;4.97;;
75858;SDS011;64504;51.308;8.620;2023-05-14T06:03:13;5.10;;;4.60;;
75858;SDS011;64504;51.308;8.620;2023-05-14T06:05:39;5.57;;;5.07;;
75858;SDS011;64504;51.308;8.620;2023-05-14T06:08:06;4.93;;;4.53;;
75858;SDS011;64504;51.308;8.620;2023-05-14T06:10:32;4.97;;;4.50;;
75858;SDS011;64504;51.308;8.620;2023-05-14T06:12:58;5.47;;;4.95;;
75858;SDS011;64504;51.308;8.620;2023-05-14T06:15:23;5.22;;;4.43;;
75858;SDS011;64504;51.308;8.620;2023-05-14T06:17:49;4.95;;;4.07;;
75858;SDS011;64504;51.308;8.620;2023-05-14T06:20:14;4.10;;;3.80;;
75858;SDS011;64504;51.308;8.620;2023-05-14T06:22:40;3.95;;;3.15;;
75858;SDS011;64504;51.308;8.620;2023-05-14T06:25:06;4.97;;;4.13;;
75858;SDS011;64504;51.308;8.620;2023-05-14T06:27:32;3.15;;;2.85;;
75858;SDS011;64504;51.308;8.620;2023-05-14T06:29:57;3.80;;;3.50;;
75858;SDS011;64504;51.308;8.620;2023-05-14T06:32:22;3.65;;;3.35;;
75858;SDS011;64504;51.308;8.620;2023-05-14T06:34:48;4.15;;;3.28;;
75858;SDS011;64504;51.308;8.620;2023-05-14T06:37:15;2.38;;;2.17;;
75858;SDS011;64504;51.308;8.620;2023-05-14T06:39:41;3.08;;;2.78;;
75858;SDS011;64504;51.308;8.620;2023-05-14T06:42:14;4.72;;;3.83;;
75858;SDS011;64504;51.308;8.620;2023-05-14T06:44:40;4.90;;;2.08;;
75858;SDS011;64504;51.308;8.620;2023-05-14T06:47:06;4.13;;;3.45;;
75858;SDS011;64504;51.308;8.620;2023-05-14T06:49:32;2.63;;;2.42;;
75858;SDS011;64504;51.308;8.620;2023-05-14T06:51:58;2.92;;;2.33;;
75858;SDS011;64504;51.308;8.620;2023-05-14T06:54:24;3.38;;;3.05;;
75858;SDS011;64504;51.308;8.620;2023-05-14T06:56:49;4.07;;;3.15;;
75858;SDS011;64504;51.308;8.620;2023-05-14T06:59:15;3.03;;;2.83;;
75858;SDS011;64504;51.308;8.620;2023-05-14T07:01:40;2.92;;;2.67;;
75858;SDS011;64504;51.308;8.620;2023-05-14T07:04:06;8.52;;;3.55;;
75858;SDS011;64504;51.308;8.620;2023-05-14T07:06:32;2.92;;;2.63;;
75858;SDS011;64504;51.308;8.620;2023-05-14T07:09:00;3.03;;;2.72;;
75858;SDS011;64504;51.308;8.620;2023-05-14T07:11:27;5.03;;;2.97;;
75858;SDS011;64504;51.308;8.620;2023-05-14T07:13:54;2.28;;;2.08;;
75858;SDS011;64504;51.308;8.620;2023-05-14T07:16:20;2.20;;;2.00;;
75858;SDS011;64504;51.308;8.620;2023-05-14T07:18:45;3.05;;;2.70;;
75858;SDS011;64504;51.308;8.620;2023-05-14T07:21:10;2.30;;;2.10;;
75858;SDS011;64504;51.308;8.620;2023-05-14T07:23:36;1.98;;;1.88;;
75858;SDS011;64504;51.308;8.620;2023-05-14T07:26:03;4.05;;;2.45;;
75858;SDS011;64504;51.308;8.620;2023-05-14T07:28:29;2.97;;;2.60;;
75858;SDS011;64504;51.308;8.620;2023-05-14T07:30:56;2.95;;;2.20;;
75858;SDS011;64504;51.308;8.620;2023-05-14T07:33:23;2.70;;;2.50;;
75858;SDS011;64504;51.308;8.620;2023-05-14T07:35:50;3.17;;;2.85;;
75858;SDS011;64504;51.308;8.620;2023-05-14T07:38:18;4.15;;;2.78;;
75858;SDS011;64504;51.308;8.620;2023-05-14T07:40:44;3.92;;;2.65;;
75858;SDS011;64504;51.308;8.620;2023-05-14T07:43:11;3.20;;;2.65;;
75858;SDS011;64504;51.308;8.620;2023-05-14T07:45:37;3.10;;;2.80;;
75858;SDS011;64504;51.308;8.620;2023-05-14T07:48:05;4.10;;;2.22;;
75858;SDS011;64504;51.308;8.620;2023-05-14T07:50:34;2.42;;;2.22;;
75858;SDS011;64504;51.308;8.620;2023-05-14T07:52:59;3.17;;;2.58;;
75858;SDS011;64504;51.308;8.620;2023-05-14T07:55:27;2.50;;;2.30;;
75858;SDS011;64504;51.308;8.620;2023-05-14T07:57:56;3.00;;;2.38;;
75858;SDS011;64504;51.308;8.620;2023-05-14T08:00:29;2.65;;;2.42;;
75858;SDS011;64504;51.308;8.620;2023-05-14T08:02:57;1.77;;;1.48;;
75858;SDS011;64504;51.308;8.620;2023-05-14T08:05:31;2.25;;;2.00;;
75858;SDS011;64504;51.308;8.620;2023-05-14T08:08:01;2.45;;;2.20;;
75858;SDS011;64504;51.308;8.620;2023-05-14T08:10:26;2.63;;;2.42;;
75858;SDS011;64504;51.308;8.620;2023-05-14T08:12:52;7.97;;;3.35;;
75858;SDS011;64504;51.308;8.620;2023-05-14T08:15:22;1.63;;;1.52;;
75858;SDS011;64504;51.308;8.620;2023-05-14T08:17:48;3.47;;;1.75;;
75858;SDS011;64504;51.308;8.620;2023-05-14T08:20:13;2.80;;;2.60;;
75858;SDS011;64504;51.308;8.620;2023-05-14T08:22:39;2.85;;;1.92;;
75858;SDS011;64504;51.308;8.620;2023-05-14T08:25:05;9.00;;;2.25;;
75858;SDS011;64504;51.308;8.620;2023-05-14T08:27:31;2.78;;;2.58;;
75858;SDS011;64504;51.308;8.620;2023-05-14T08:29:57;2.15;;;1.95;;
75858;SDS011;64504;51.308;8.620;2023-05-14T08:32:23;3.20;;;2.13;;
75858;SDS011;64504;51.308;8.620;2023-05-14T08:34:48;2.10;;;1.77;;
75858;SDS011;64504;51.308;8.620;2023-05-14T08:37:15;3.28;;;1.77;;
75858;SDS011;64504;51.308;8.620;2023-05-14T08:39:41;1.27;;;1.17;;
75858;SDS011;64504;51.308;8.620;2023-05-14T08:42:07;3.08;;;2.10;;
75858;SDS011;64504;51.308;8.620;2023-05-14T08:44:46;2.78;;;1.98;;
75858;SDS011;64504;51.308;8.620;2023-05-14T08:47:17;2.28;;;2.15;;
75858;SDS011;64504;51.308;8.620;2023-05-14T08:49:45;2.53;;;2.33;;
75858;SDS011;64504;51.308;8.620;2023-05-14T08:52:11;1.50;;;1.35;;
75858;SDS011;64504;51.308;8.620;2023-05-14T08:54:37;2.13;;;1.95;;
75858;SDS011;64504;51.308;8.620;2023-05-14T08:57:04;1.88;;;1.63;;
75858;SDS011;64504;51.308;8.620;2023-05-14T08:59:30;2.53;;;2.33;;
75858;SDS011;64504;51.308;8.620;2023-05-14T09:01:57;1.88;;;1.75;;
75858;SDS011;64504;51.308;8.620;2023-05-14T09:04:26;2.08;;;1.80;;
75858;SDS011;64504;51.308;8.620;2023-05-14T09:06:52;3.15;;;1.83;;
75858;SDS011;64504;51.308;8.620;2023-05-14T09:09:19;2.75;;;2.33;;
75858;SDS011;64504;51.308;8.620;2023-05-14T09:11:48;1.55;;;1.45;;
75858;SDS011;64504;51.308;8.620;2023-05-14T09:14:14;2.42;;;2.22;;
75858;SDS011;64504;51.308;8.620;2023-05-14T09:16:43;2.25;;;1.98;;
75858;SDS011;64504;51.308;8.620;2023-05-14T09:19:10;7.43;;;2.13;;
75858;SDS011;64504;51.308;8.620;2023-05-14T09:21:37;4.88;;;2.10;;
75858;SDS011;64504;51.308;8.620;2023-05-14T09:24:03;3.05;;;2.42;;
75858;SDS011;64504;51.308;8.620;2023-05-14T09:26:30;2.30;;;2.10;;
75858;SDS011;64504;51.308;8.620;2023-05-14T09:28:57;1.90;;;1.73;;
75858;SDS011;64504;51.308;8.620;2023-05-14T09:31:31;2.53;;;1.48;;
75858;SDS011;64504;51.308;8.620;2023-05-14T09:33:57;1.90;;;1.80;;
75858;SDS011;64504;51.308;8.620;2023-05-14T09:36:23;1.67;;;1.58;;
75858;SDS011;64504;51.308;8.620;2023-05-14T09:38:51;1.67;;;1.58;;
75858;SDS011;64504;51.308;8.620;2023-05-14T09:41:17;1.83;;;1.73;;
75858;SDS011;64504;51.308;8.620;2023-05-14T09:43:43;2.38;;;2.20;;
75858;SDS011;64504;51.308;8.620;2023-05-14T09:46:10;1.77;;;1.67;;
75858;SDS011;64504;51.308;8.620;2023-05-14T09:48:35;4.95;;;2.88;;
75858;SDS011;64504;51.308;8.620;2023-05-14T09:51:00;7.32;;;6.00;;
75858;SDS011;64504;51.308;8.620;2023-05-14T09:53:26;3.05;;;2.28;;
75858;SDS011;64504;51.308;8.620;2023-05-14T09:55:53;3.03;;;2.17;;
75858;SDS011;64504;51.308;8.620;2023-05-14T09:58:20;2.17;;;2.00;;
75858;SDS011;64504;51.308;8.620;2023-05-14T10:00:45;3.05;;;2.33;;
75858;SDS011;64504;51.308;8.620;2023-05-14T10:03:13;6.32;;;5.05;;
75858;SDS011;64504;51.308;8.620;2023-05-14T10:05:40;2.70;;;2.50;;
75858;SDS011;64504;51.308;8.620;2023-05-14T10:08:12;2.13;;;2.03;;
75858;SDS011;64504;51.308;8.620;2023-05-14T10:10:39;1.65;;;1.55;;
75858;SDS011;64504;51.308;8.620;2023-05-14T10:13:10;2.67;;;1.77;;
75858;SDS011;64504;51.308;8.620;2023-05-14T10:15:48;1.70;;;1.60;;
75858;SDS011;64504;51.308;8.620;2023-05-14T10:18:21;2.78;;;2.28;;
75858;SDS011;64504;51.308;8.620;2023-05-14T10:20:51;1.42;;;1.30;;
75858;SDS011;64504;51.308;8.620;2023-05-14T10:23:21;2.08;;;1.95;;
75858;SDS011;64504;51.308;8.620;2023-05-14T10:25:47;1.98;;;1.63;;
75858;SDS011;64504;51.308;8.620;2023-05-14T10:28:13;1.33;;;1.23;;
75858;SDS011;64504;51.308;8.620;2023-05-14T10:30:44;1.83;;;1.63;;
75858;SDS011;64504;51.308;8.620;2023-05-14T10:33:14;6.68;;;1.25;;
75858;SDS011;64504;51.308;8.620;2023-05-14T10:38:38;1.35;;;1.25;;
75858;SDS011;64504;51.308;8.620;2023-05-14T10:41:05;18.65;;;3.30;;
75858;SDS011;64504;51.308;8.620;2023-05-14T10:43:43;3.50;;;3.17;;
75858;SDS011;64504;51.308;8.620;2023-05-14T10:46:09;17.52;;;2.40;;
75858;SDS011;64504;51.308;8.620;2023-05-14T10:48:36;1.92;;;1.83;;
75858;SDS011;64504;51.308;8.620;2023-05-14T10:51:02;0.60;;;0.60;;
75858;SDS011;64504;51.308;8.620;2023-05-14T10:53:31;0.20;;;0.20;;
75858;SDS011;64504;51.308;8.620;2023-05-14T10:56:02;0.10;;;0.10;;
75858;SDS011;64504;51.308;8.620;2023-05-14T10:58:29;0.17;;;0.17;;
75858;SDS011;64504;51.308;8.620;2023-05-14T11:00:57;0.13;;;0.13;;
75858;SDS011;64504;51.308;8.620;2023-05-14T11:03:23;0.10;;;0.10;;
75858;SDS011;64504;51.308;8.620;2023-05-14T11:05:53;0.17;;;0.17;;
75858;SDS011;64504;51.308;8.620;2023-05-14T11:08:19;0.10;;;0.10;;
75858;SDS011;64504;51.308;8.620;2023-05-14T11:10:46;0.90;;;0.90;;
75858;SDS011;64504;51.308;8.620;2023-05-14T11:13:11;0.75;;;0.75;;
75858;SDS011;64504;51.308;8.620;2023-05-14T11:15:37;0.10;;;0.10;;
75858;SDS011;64504;51.308;8.620;2023-05-14T11:18:09;0.43;;;0.40;;
75858;SDS011;64504;51.308;8.620;2023-05-14T11:20:34;1.67;;;0.65;;
75858;SDS011;64504;51.308;8.620;2023-05-14T11:23:00;0.68;;;0.68;;
75858;SDS011;64504;51.308;8.620;2023-05-14T11:25:25;0.28;;;0.28;;
75858;SDS011;64504;51.308;8.620;2023-05-14T11:27:51;0.73;;;0.73;;
75858;SDS011;64504;51.308;8.620;2023-05-14T11:30:22;0.10;;;0.10;;
75858;SDS011;64504;51.308;8.620;2023-05-14T11:32:48;4.00;;;0.95;;
75858;SDS011;64504;51.308;8.620;2023-05-14T11:35:14;3.22;;;0.65;;
75858;SDS011;64504;51.308;8.620;2023-05-14T11:37:42;0.10;;;0.10;;
75858;SDS011;64504;51.308;8.620;2023-05-14T11:40:14;0.10;;;0.10;;
75858;SDS011;64504;51.308;8.620;2023-05-14T11:42:43;0.10;;;0.10;;
75858;SDS011;64504;51.308;8.620;2023-05-14T11:45:12;0.85;;;0.85;;
75858;SDS011;64504;51.308;8.620;2023-05-14T11:47:49;0.22;;;0.22;;
75858;SDS011;64504;51.308;8.620;2023-05-14T11:50:16;0.10;;;0.10;;
75858;SDS011;64504;51.308;8.620;2023-05-14T11:52:42;0.20;;;0.20;;
75858;SDS011;64504;51.308;8.620;2023-05-14T11:55:11;0.85;;;0.85;;
75858;SDS011;64504;51.308;8.620;2023-05-14T11:57:37;0.10;;;0.10;;
75858;SDS011;64504;51.308;8.620;2023-05-14T12:00:02;1.92;;;1.83;;
75858;SDS011;64504;51.308;8.620;2023-05-14T12:02:30;0.30;;;0.30;;
75858;SDS011;64504;51.308;8.620;2023-05-14T12:04:56;0.40;;;0.40;;
75858;SDS011;64504;51.308;8.620;2023-05-14T12:07:22;0.28;;;0.28;;
75858;SDS011;64504;51.308;8.620;2023-05-14T12:09:50;1.35;;;0.90;;
75858;SDS011;64504;51.308;8.620;2023-05-14T12:12:19;0.25;;;0.25;;
75858;SDS011;64504;51.308;8.620;2023-05-14T12:14:46;0.05;;;0.05;;
75858;SDS011;64504;51.308;8.620;2023-05-14T12:17:15;0.85;;;0.80;;
75858;SDS011;64504;51.308;8.620;2023-05-14T12:19:42;0.57;;;0.57;;
75858;SDS011;64504;51.308;8.620;2023-05-14T12:22:09;0.52;;;0.52;;
75858;SDS011;64504;51.308;8.620;2023-05-14T12:24:35;0.10;;;0.10;;
75858;SDS011;64504;51.308;8.620;2023-05-14T12:27:01;0.08;;;0.08;;
75858;SDS011;64504;51.308;8.620;2023-05-14T12:29:27;0.10;;;0.10;;
75858;SDS011;64504;51.308;8.620;2023-05-14T12:31:55;0.10;;;0.10;;
75858;SDS011;64504;51.308;8.620;2023-05-14T12:34:23;0.50;;;0.50;;
75858;SDS011;64504;51.308;8.620;2023-05-14T12:36:49;0.10;;;0.10;;
75858;SDS011;64504;51.308;8.620;2023-05-14T12:39:14;0.10;;;0.10;;
75858;SDS011;64504;51.308;8.620;2023-05-14T12:41:41;0.20;;;0.20;;
75858;SDS011;64504;51.308;8.620;2023-05-14T12:44:06;0.10;;;0.10;;
75858;SDS011;64504;51.308;8.620;2023-05-14T12:46:32;0.35;;;0.35;;
75858;SDS011;64504;51.308;8.620;2023-05-14T12:48:58;0.60;;;0.60;;
75858;SDS011;64504;51.308;8.620;2023-05-14T12:51:23;0.10;;;0.10;;
75858;SDS011;64504;51.308;8.620;2023-05-14T12:53:49;0.88;;;0.88;;
75858;SDS011;64504;51.308;8.620;2023-05-14T12:56:16;0.32;;;0.32;;
75858;SDS011;64504;51.308;8.620;2023-05-14T12:58:42;0.20;;;0.20;;
75858;SDS011;64504;51.308;8.620;2023-05-14T13:01:07;1.35;;;0.70;;
75858;SDS011;64504;51.308;8.620;2023-05-14T13:03:33;0.10;;;0.10;;
75858;SDS011;64504;51.308;8.620;2023-05-14T13:05:58;2.20;;;2.05;;
75858;SDS011;64504;51.308;8.620;2023-05-14T13:08:24;0.82;;;0.80;;
75858;SDS011;64504;51.308;8.620;2023-05-14T13:10:53;0.13;;;0.13;;
75858;SDS011;64504;51.308;8.620;2023-05-14T13:13:19;0.20;;;0.20;;
75858;SDS011;64504;51.308;8.620;2023-05-14T13:15:45;0.10;;;0.10;;
75858;SDS011;64504;51.308;8.620;2023-05-14T13:18:11;0.32;;;0.32;;
75858;SDS011;64504;51.308;8.620;2023-05-14T13:20:37;1.63;;;1.63;;
75858;SDS011;64504;51.308;8.620;2023-05-14T13:23:02;0.10;;;0.10;;
75858;SDS011;64504;51.308;8.620;2023-05-14T13:25:28;0.20;;;0.20;;
75858;SDS011;64504;51.308;8.620;2023-05-14T13:27:53;0.10;;;0.10;;
75858;SDS011;64504;51.308;8.620;2023-05-14T13:30:19;2.75;;;1.17;;
75858;SDS011;64504;51.308;8.620;2023-05-14T13:32:45;1.85;;;0.68;;
75858;SDS011;64504;51.308;8.620;2023-05-14T13:35:11;0.17;;;0.17;;
75858;SDS011;64504;51.308;8.620;2023-05-14T13:37:37;0.30;;;0.30;;
75858;SDS011;64504;51.308;8.620;2023-05-14T13:40:03;0.10;;;0.10;;
75858;SDS011;64504;51.308;8.620;2023-05-14T13:42:34;0.10;;;0.10;;
75858;SDS011;64504;51.308;8.620;2023-05-14T13:45:00;0.45;;;0.45;;
75858;SDS011;64504;51.308;8.620;2023-05-14T13:47:26;0.73;;;0.73;;
75858;SDS011;64504;51.308;8.620;2023-05-14T13:49:52;1.10;;;1.10;;
75858;SDS011;64504;51.308;8.620;2023-05-14T13:52:18;0.10;;;0.10;;
75858;SDS011;64504;51.308;8.620;2023-05-14T13:54:44;0.10;;;0.10;;
75858;SDS011;64504;51.308;8.620;2023-05-14T13:57:10;0.35;;;0.35;;
75858;SDS011;64504;51.308;8.620;2023-05-14T13:59:37;0.30;;;0.30;;
75858;SDS011;64504;51.308;8.620;2023-05-14T14:02:02;0.88;;;0.88;;
75858;SDS011;64504;51.308;8.620;2023-05-14T14:04:28;0.10;;;0.10;;
75858;SDS011;64504;51.308;8.620;2023-05-14T14:06:54;0.10;;;0.10;;
75858;SDS011;64504;51.308;8.620;2023-05-14T14:09:21;0.28;;;0.28;;
75858;SDS011;64504;51.308;8.620;2023-05-14T14:11:47;0.20;;;0.20;;
75858;SDS011;64504;51.308;8.620;2023-05-14T14:14:13;0.25;;;0.25;;
75858;SDS011;64504;51.308;8.620;2023-05-14T14:16:39;0.10;;;0.10;;
75858;SDS011;64504;51.308;8.620;2023-05-14T14:19:05;0.38;;;0.38;;
75858;SDS011;64504;51.308;8.620;2023-05-14T14:21:31;0.20;;;0.20;;
75858;SDS011;64504;51.308;8.620;2023-05-14T14:23:56;0.22;;;0.22;;
75858;SDS011;64504;51.308;8.620;2023-05-14T14:26:22;0.10;;;0.10;;
75858;SDS011;64504;51.308;8.620;2023-05-14T14:28:47;1.60;;;1.20;;
75858;SDS011;64504;51.308;8.620;2023-05-14T14:31:15;0.10;;;0.10;;
75858;SDS011;64504;51.308;8.620;2023-05-14T14:33:41;0.22;;;0.22;;
75858;SDS011;64504;51.308;8.620;2023-05-14T14:36:07;0.10;;;0.10;;
75858;SDS011;64504;51.308;8.620;2023-05-14T14:38:34;0.40;;;0.40;;
75858;SDS011;64504;51.308;8.620;2023-05-14T14:40:59;0.55;;;0.55;;
75858;SDS011;64504;51.308;8.620;2023-05-14T14:43:29;0.68;;;0.68;;
75858;SDS011;64504;51.308;8.620;2023-05-14T14:45:59;0.10;;;0.10;;
75858;SDS011;64504;51.308;8.620;2023-05-14T14:50:55;1.05;;;1.00;;
75858;SDS011;64504;51.308;8.620;2023-05-14T14:53:21;0.10;;;0.10;;
75858;SDS011;64504;51.308;8.620;2023-05-14T14:55:47;0.20;;;0.20;;
75858;SDS011;64504;51.308;8.620;2023-05-14T14:58:14;1.10;;;1.10;;